Time;durP1;ratioP1;P1;durP2;ratioP2;P2;SDS_P1;SDS_P2;PMS_P1;PMS_P2;Temp;Humidity;BMP_temperature;BMP_pressure;BME280_temperature;BME280_humidity;BME280_pressure;Samples;Min_cycle;Max_cycle;Signal;HPM_P1;HPM_P2
2022/01/04 00:00:16;;;;;;;276.20;128.90;;;;;;;;;;4401040;32;20206;-52
2022/01/04 00:02:42;;;;;;;263.67;134.13;;;;;;;;;;4403316;32;20812;-52
2022/01/04 00:05:09;;;;;;;272.73;132.80;;;;;;;;;;4401575;32;20214;-52
2022/01/04 00:07:34;;;;;;;259.80;127.53;;;;;;;;;;4396576;32;20308;-53
2022/01/04 00:10:00;;;;;;;245.90;119.20;;;;;;;;;;4402409;32;20209;-53
2022/01/04 00:15:11;;;;;;;241.70;118.90;;;;;;;;;;4399381;32;20229;-52
2022/01/04 00:17:36;;;;;;;270.97;127.63;;;;;;;;;;4398062;32;20654;-52
2022/01/04 00:20:04;;;;;;;259.40;131.83;;;;;;;;;;4401644;32;20221;-50
2022/01/04 00:22:30;;;;;;;285.40;139.43;;;;;;;;;;4389194;32;20292;-49
2022/01/04 00:24:56;;;;;;;292.67;145.63;;;;;;;;;;4402455;32;20395;-51
2022/01/04 00:27:21;;;;;;;274.80;136.47;;;;;;;;;;4395569;32;20294;-51
2022/01/04 00:29:47;;;;;;;267.67;136.03;;;;;;;;;;4402480;32;20290;-51
2022/01/04 00:32:12;;;;;;;262.03;134.23;;;;;;;;;;4402567;32;20336;-52
2022/01/04 00:34:37;;;;;;;270.40;131.83;;;;;;;;;;4388134;32;20307;-52
2022/01/04 00:37:03;;;;;;;257.27;124.37;;;;;;;;;;4403517;32;20319;-52
2022/01/04 00:39:29;;;;;;;240.37;118.37;;;;;;;;;;4402855;32;20778;-52
2022/01/04 00:41:55;;;;;;;235.00;112.27;;;;;;;;;;4403116;32;20268;-50
2022/01/04 00:44:20;;;;;;;240.23;121.80;;;;;;;;;;4401102;32;20284;-52
2022/01/04 00:46:46;;;;;;;255.43;123.13;;;;;;;;;;4388527;32;20214;-52
2022/01/04 00:49:11;;;;;;;232.63;118.20;;;;;;;;;;4399216;32;20449;-53
2022/01/04 00:51:47;;;;;;;244.13;117.87;;;;;;;;;;4404090;32;20238;-52
2022/01/04 00:54:13;;;;;;;224.33;111.37;;;;;;;;;;4403625;32;20226;-51
2022/01/04 00:56:40;;;;;;;248.00;115.43;;;;;;;;;;4403272;32;20221;-52
2022/01/04 00:59:07;;;;;;;218.83;111.70;;;;;;;;;;4397444;32;20363;-50
2022/01/04 01:01:33;;;;;;;239.40;115.90;;;;;;;;;;4395759;32;20321;-50
2022/01/04 01:03:58;;;;;;;239.77;116.00;;;;;;;;;;4396412;32;20375;-52
2022/01/04 01:06:24;;;;;;;221.23;110.80;;;;;;;;;;4394472;32;20752;-50
2022/01/04 01:08:50;;;;;;;240.73;112.00;;;;;;;;;;4389040;32;20269;-50
2022/01/04 01:11:16;;;;;;;209.93;98.63;;;;;;;;;;4392282;32;20316;-51
2022/01/04 01:13:41;;;;;;;178.03;90.27;;;;;;;;;;4397178;32;20649;-51
2022/01/04 01:16:08;;;;;;;163.07;85.77;;;;;;;;;;4394648;32;20611;-52
2022/01/04 01:18:35;;;;;;;155.87;79.43;;;;;;;;;;4403715;32;20300;-54
2022/01/04 01:21:01;;;;;;;147.60;76.47;;;;;;;;;;4402378;32;20555;-51
2022/01/04 01:23:26;;;;;;;130.30;67.00;;;;;;;;;;4395945;32;20419;-52
2022/01/04 01:25:52;;;;;;;110.90;55.57;;;;;;;;;;4399636;32;20578;-58
2022/01/04 01:28:18;;;;;;;106.60;54.87;;;;;;;;;;4401453;32;20297;-53
2022/01/04 01:30:44;;;;;;;100.27;50.73;;;;;;;;;;4401458;32;20781;-51
2022/01/04 01:33:11;;;;;;;92.47;48.57;;;;;;;;;;4401460;32;20618;-52
2022/01/04 01:35:37;;;;;;;92.07;44.13;;;;;;;;;;4401390;32;20411;-52
2022/01/04 01:38:04;;;;;;;101.77;50.27;;;;;;;;;;4402417;32;20229;-52
2022/01/04 01:40:29;;;;;;;96.07;49.27;;;;;;;;;;4400562;32;20599;-51
2022/01/04 01:42:56;;;;;;;91.63;45.17;;;;;;;;;;4401913;32;20291;-52
2022/01/04 01:45:23;;;;;;;66.13;37.17;;;;;;;;;;4402356;32;20337;-51
2022/01/04 01:47:48;;;;;;;64.47;32.43;;;;;;;;;;4401769;32;20603;-52
2022/01/04 01:50:15;;;;;;;52.67;27.47;;;;;;;;;;4400718;32;20328;-51
2022/01/04 01:52:42;;;;;;;78.63;38.03;;;;;;;;;;4401471;32;20678;-52
2022/01/04 01:55:09;;;;;;;71.10;37.27;;;;;;;;;;4401889;32;20221;-51
2022/01/04 01:57:35;;;;;;;73.30;38.67;;;;;;;;;;4401494;32;20511;-51
2022/01/04 02:00:01;;;;;;;68.63;39.47;;;;;;;;;;4401523;32;20656;-51
2022/01/04 02:02:26;;;;;;;80.20;39.67;;;;;;;;;;4401747;32;20702;-51
2022/01/04 02:04:52;;;;;;;64.57;37.87;;;;;;;;;;4401785;32;20371;-52
2022/01/04 02:07:19;;;;;;;76.03;41.77;;;;;;;;;;4401258;32;20341;-52
2022/01/04 02:09:52;;;;;;;76.23;41.40;;;;;;;;;;4399095;32;20308;-51
2022/01/04 02:12:20;;;;;;;78.43;42.27;;;;;;;;;;4399480;32;20324;-52
2022/01/04 02:14:51;;;;;;;81.23;41.27;;;;;;;;;;4388724;32;20539;-52
2022/01/04 02:17:17;;;;;;;85.63;42.57;;;;;;;;;;4401347;32;20336;-52
2022/01/04 02:19:42;;;;;;;87.90;42.77;;;;;;;;;;4400698;32;20720;-52
2022/01/04 02:22:08;;;;;;;70.87;37.73;;;;;;;;;;4401629;32;20217;-51
2022/01/04 02:24:33;;;;;;;72.10;37.93;;;;;;;;;;4400968;32;20326;-51
2022/01/04 02:27:00;;;;;;;87.70;36.53;;;;;;;;;;4400695;32;20256;-52
2022/01/04 02:29:27;;;;;;;76.70;38.00;;;;;;;;;;4401323;32;20741;-52
2022/01/04 02:31:53;;;;;;;76.83;39.77;;;;;;;;;;4401316;32;20277;-51
2022/01/04 02:34:18;;;;;;;88.33;39.50;;;;;;;;;;4399634;32;20300;-51
2022/01/04 02:36:44;;;;;;;82.93;42.63;;;;;;;;;;4398969;32;20347;-52
2022/01/04 02:39:10;;;;;;;89.43;41.03;;;;;;;;;;4394267;32;20234;-51
2022/01/04 02:41:35;;;;;;;70.80;40.40;;;;;;;;;;4400211;32;20213;-51
2022/01/04 02:44:01;;;;;;;92.03;42.60;;;;;;;;;;4394629;32;20217;-52
2022/01/04 02:46:26;;;;;;;85.47;44.13;;;;;;;;;;4397821;32;20311;-51
2022/01/04 02:48:52;;;;;;;125.00;61.17;;;;;;;;;;4387383;32;20359;-51
2022/01/04 02:51:18;;;;;;;113.50;59.77;;;;;;;;;;4397843;32;20298;-52
2022/01/04 02:53:44;;;;;;;151.50;75.47;;;;;;;;;;4386860;32;20751;-51
2022/01/04 02:56:11;;;;;;;148.77;73.10;;;;;;;;;;4391245;32;20300;-51
2022/01/04 02:58:37;;;;;;;154.03;74.53;;;;;;;;;;4398989;32;20296;-52
2022/01/04 03:01:03;;;;;;;172.73;83.30;;;;;;;;;;4395639;32;20417;-51
2022/01/04 03:03:30;;;;;;;194.53;93.80;;;;;;;;;;4395259;32;20225;-52
2022/01/04 03:05:56;;;;;;;195.33;96.43;;;;;;;;;;4393710;32;20701;-51
2022/01/04 03:08:22;;;;;;;177.97;86.87;;;;;;;;;;4391731;32;20247;-51
2022/01/04 03:10:48;;;;;;;195.43;95.00;;;;;;;;;;4395766;32;20245;-51
2022/01/04 03:13:16;;;;;;;179.17;88.47;;;;;;;;;;4392481;32;20351;-51
2022/01/04 03:15:42;;;;;;;191.83;95.63;;;;;;;;;;4395768;32;20294;-52
2022/01/04 03:18:07;;;;;;;196.13;97.27;;;;;;;;;;4393889;32;20222;-52
2022/01/04 03:20:33;;;;;;;216.93;111.50;;;;;;;;;;4391435;32;20218;-51
2022/01/04 03:22:58;;;;;;;264.53;134.07;;;;;;;;;;4394581;32;20355;-52
2022/01/04 03:25:23;;;;;;;263.10;126.73;;;;;;;;;;4392680;32;20729;-52
2022/01/04 03:27:49;;;;;;;203.40;95.93;;;;;;;;;;4392293;32;20305;-52
2022/01/04 03:30:14;;;;;;;204.07;89.33;;;;;;;;;;4389722;32;20254;-52
2022/01/04 03:32:40;;;;;;;176.07;82.13;;;;;;;;;;4379854;32;20307;-51
2022/01/04 03:35:06;;;;;;;165.33;80.83;;;;;;;;;;4396794;32;20213;-52
2022/01/04 03:37:31;;;;;;;198.33;80.17;;;;;;;;;;4397029;32;20240;-51
2022/01/04 03:39:57;;;;;;;185.40;77.90;;;;;;;;;;4395617;32;20218;-52
2022/01/04 03:42:22;;;;;;;191.30;80.63;;;;;;;;;;4398555;32;20288;-52
2022/01/04 03:44:48;;;;;;;224.03;82.03;;;;;;;;;;4393730;32;20296;-51
2022/01/04 03:47:14;;;;;;;216.03;84.50;;;;;;;;;;4402284;32;20338;-52
2022/01/04 03:49:40;;;;;;;217.73;76.60;;;;;;;;;;4401632;32;20206;-53
2022/01/04 03:52:05;;;;;;;166.80;71.67;;;;;;;;;;4401772;32;20327;-53
2022/01/04 03:54:31;;;;;;;194.60;70.60;;;;;;;;;;4399150;32;20291;-52
2022/01/04 03:56:56;;;;;;;172.70;65.27;;;;;;;;;;4396082;32;20250;-53
2022/01/04 03:59:22;;;;;;;150.93;63.00;;;;;;;;;;4391830;32;20280;-51
2022/01/04 04:01:48;;;;;;;143.93;60.53;;;;;;;;;;4401372;32;20373;-52
2022/01/04 04:04:13;;;;;;;139.53;56.57;;;;;;;;;;4391461;32;20692;-52
2022/01/04 04:06:39;;;;;;;116.87;51.63;;;;;;;;;;4395013;32;20294;-52
2022/01/04 04:09:04;;;;;;;103.10;52.03;;;;;;;;;;4376704;32;20280;-52
2022/01/04 04:11:30;;;;;;;108.07;50.37;;;;;;;;;;4388042;32;20276;-51
2022/01/04 04:13:55;;;;;;;122.47;51.53;;;;;;;;;;4392620;32;20360;-51
2022/01/04 04:16:21;;;;;;;119.33;51.77;;;;;;;;;;4393168;32;20313;-50
2022/01/04 04:18:46;;;;;;;107.27;50.10;;;;;;;;;;4398938;32;20569;-53
2022/01/04 04:21:12;;;;;;;119.80;53.90;;;;;;;;;;4399806;32;20656;-50
2022/01/04 04:23:38;;;;;;;110.33;49.43;;;;;;;;;;4401358;32;20695;-53
2022/01/04 04:26:04;;;;;;;99.87;45.30;;;;;;;;;;4396407;32;20674;-50
2022/01/04 04:28:29;;;;;;;93.20;46.33;;;;;;;;;;4400791;32;20280;-50
2022/01/04 04:30:56;;;;;;;97.50;47.70;;;;;;;;;;4401282;32;20217;-51
2022/01/04 04:33:22;;;;;;;103.00;47.87;;;;;;;;;;4400002;32;20273;-51
2022/01/04 04:35:47;;;;;;;109.20;49.43;;;;;;;;;;4391070;32;20661;-51
2022/01/04 04:38:13;;;;;;;107.63;51.47;;;;;;;;;;4398239;32;20445;-51
2022/01/04 04:40:38;;;;;;;114.20;53.60;;;;;;;;;;4402365;32;20285;-52
2022/01/04 04:43:03;;;;;;;102.67;49.30;;;;;;;;;;4382793;32;20856;-51
2022/01/04 04:45:29;;;;;;;105.47;49.47;;;;;;;;;;4397458;32;20214;-52
2022/01/04 04:47:55;;;;;;;105.80;52.97;;;;;;;;;;4403277;32;20314;-54
2022/01/04 04:50:20;;;;;;;113.47;52.87;;;;;;;;;;4403730;32;20232;-53
2022/01/04 04:52:46;;;;;;;123.20;62.50;;;;;;;;;;4391659;32;20289;-53
2022/01/04 04:55:11;;;;;;;118.60;55.90;;;;;;;;;;4394375;32;20217;-53
2022/01/04 04:57:38;;;;;;;143.23;59.63;;;;;;;;;;4391238;32;20700;-51
2022/01/04 05:00:08;;;;;;;107.30;52.30;;;;;;;;;;4398158;32;20565;-52
2022/01/04 05:02:34;;;;;;;107.77;50.97;;;;;;;;;;4392395;32;20226;-52
2022/01/04 05:04:59;;;;;;;107.00;46.17;;;;;;;;;;4400755;32;20299;-52
2022/01/04 05:07:26;;;;;;;90.23;47.33;;;;;;;;;;4387714;32;20640;-51
2022/01/04 05:09:51;;;;;;;102.70;44.17;;;;;;;;;;4393507;32;20297;-51
2022/01/04 05:12:17;;;;;;;88.80;44.33;;;;;;;;;;4403792;32;20323;-52
2022/01/04 05:14:46;;;;;;;78.17;44.90;;;;;;;;;;4398719;32;20684;-52
2022/01/04 05:17:15;;;;;;;100.17;46.30;;;;;;;;;;4401104;32;20333;-52
2022/01/04 05:19:41;;;;;;;103.43;46.20;;;;;;;;;;4396236;32;20355;-51
2022/01/04 05:22:07;;;;;;;97.77;47.43;;;;;;;;;;4389186;32;20295;-51
2022/01/04 05:24:33;;;;;;;98.03;47.97;;;;;;;;;;4377996;32;20322;-53
2022/01/04 05:26:58;;;;;;;86.97;47.47;;;;;;;;;;4402863;32;20265;-52
2022/01/04 05:29:24;;;;;;;98.50;48.17;;;;;;;;;;4402473;32;20315;-52
2022/01/04 05:31:50;;;;;;;97.63;48.73;;;;;;;;;;4398565;32;20256;-51
2022/01/04 05:34:15;;;;;;;99.70;50.47;;;;;;;;;;4388325;32;20569;-52
2022/01/04 05:36:41;;;;;;;83.03;47.33;;;;;;;;;;4397802;32;20247;-52
2022/01/04 05:39:07;;;;;;;92.83;46.43;;;;;;;;;;4388482;32;20583;-52
2022/01/04 05:41:33;;;;;;;78.33;44.60;;;;;;;;;;4390685;32;20443;-51
2022/01/04 05:43:59;;;;;;;89.33;49.10;;;;;;;;;;4388294;32;20234;-53
2022/01/04 05:46:24;;;;;;;92.57;49.97;;;;;;;;;;4392587;32;20775;-52
2022/01/04 05:48:50;;;;;;;95.70;49.37;;;;;;;;;;4389201;32;20282;-51
2022/01/04 05:51:16;;;;;;;120.27;53.73;;;;;;;;;;4401248;32;20280;-52
2022/01/04 05:53:41;;;;;;;131.13;65.87;;;;;;;;;;4402684;32;20746;-54
2022/01/04 05:56:06;;;;;;;127.33;63.67;;;;;;;;;;4400940;32;20221;-52
2022/01/04 05:58:32;;;;;;;115.10;57.77;;;;;;;;;;4399326;32;20317;-51
2022/01/04 06:00:58;;;;;;;103.90;50.97;;;;;;;;;;4397242;32;20257;-52
2022/01/04 06:03:23;;;;;;;114.27;55.90;;;;;;;;;;4395448;32;20229;-50
2022/01/04 06:05:49;;;;;;;93.97;51.30;;;;;;;;;;4400942;32;20214;-51
2022/01/04 06:08:14;;;;;;;104.50;49.37;;;;;;;;;;4390961;32;20374;-52
2022/01/04 06:10:43;;;;;;;99.23;51.37;;;;;;;;;;4385876;32;20320;-52
2022/01/04 06:15:38;;;;;;;107.73;57.43;;;;;;;;;;4394505;32;20265;-51
2022/01/04 06:18:04;;;;;;;100.47;59.13;;;;;;;;;;4395374;32;20245;-52
2022/01/04 06:20:30;;;;;;;97.50;58.47;;;;;;;;;;4402120;32;20240;-52
2022/01/04 06:22:56;;;;;;;112.40;57.67;;;;;;;;;;4389470;32;20244;-53
2022/01/04 06:25:22;;;;;;;105.07;60.07;;;;;;;;;;4400111;32;20661;-52
2022/01/04 06:27:50;;;;;;;125.40;65.07;;;;;;;;;;4389611;32;20280;-53
2022/01/04 06:30:21;;;;;;;109.57;60.60;;;;;;;;;;4394397;32;20358;-52
2022/01/04 06:32:46;;;;;;;119.03;67.93;;;;;;;;;;4388587;32;20235;-52
2022/01/04 06:35:13;;;;;;;114.57;62.60;;;;;;;;;;4395661;32;20641;-51
2022/01/04 06:37:43;;;;;;;116.70;62.57;;;;;;;;;;4394842;32;20279;-53
2022/01/04 06:40:10;;;;;;;123.00;64.77;;;;;;;;;;4396583;32;20271;-52
2022/01/04 06:42:35;;;;;;;102.20;61.40;;;;;;;;;;4399819;32;20233;-53
2022/01/04 06:45:01;;;;;;;108.20;61.67;;;;;;;;;;4401136;32;20256;-53
2022/01/04 06:47:26;;;;;;;114.97;65.80;;;;;;;;;;4394097;32;20255;-51
2022/01/04 06:49:52;;;;;;;137.23;72.93;;;;;;;;;;4392313;32;20230;-51
2022/01/04 06:52:17;;;;;;;146.17;71.33;;;;;;;;;;4391965;32;20642;-51
2022/01/04 06:54:43;;;;;;;181.27;92.63;;;;;;;;;;4399765;32;20284;-52
2022/01/04 06:57:08;;;;;;;184.43;90.57;;;;;;;;;;4401280;32;20663;-52
2022/01/04 06:59:34;;;;;;;168.23;84.80;;;;;;;;;;4399134;32;20880;-52
2022/01/04 07:02:00;;;;;;;158.77;84.40;;;;;;;;;;4394250;32;20340;-52
2022/01/04 07:04:26;;;;;;;178.67;87.23;;;;;;;;;;4393138;32;20393;-52
2022/01/04 07:06:51;;;;;;;147.77;83.23;;;;;;;;;;4393188;32;20744;-52
2022/01/04 07:09:17;;;;;;;148.90;77.37;;;;;;;;;;4392100;32;20312;-51
2022/01/04 07:11:42;;;;;;;152.43;75.53;;;;;;;;;;4391437;32;20237;-52
2022/01/04 07:14:08;;;;;;;147.97;78.10;;;;;;;;;;4396243;32;20338;-53
2022/01/04 07:16:33;;;;;;;133.77;74.47;;;;;;;;;;4392380;32;20352;-52
2022/01/04 07:18:59;;;;;;;126.30;71.67;;;;;;;;;;4395943;32;20300;-55
2022/01/04 07:21:25;;;;;;;122.80;68.83;;;;;;;;;;4391178;32;20233;-52
2022/01/04 07:23:50;;;;;;;134.23;75.60;;;;;;;;;;4390192;32;20759;-54
2022/01/04 07:26:16;;;;;;;143.67;78.93;;;;;;;;;;4392700;32;20272;-53
2022/01/04 07:28:45;;;;;;;132.67;76.47;;;;;;;;;;4391395;32;20210;-53
2022/01/04 07:31:12;;;;;;;154.43;82.60;;;;;;;;;;4391603;32;20736;-52
2022/01/04 07:33:38;;;;;;;161.27;85.10;;;;;;;;;;4380877;32;20280;-53
2022/01/04 07:36:06;;;;;;;155.07;86.13;;;;;;;;;;4396695;32;20349;-52
2022/01/04 07:38:35;;;;;;;152.13;81.37;;;;;;;;;;4394048;32;20194;-53
2022/01/04 07:41:01;;;;;;;149.03;84.23;;;;;;;;;;4398739;32;20276;-52
2022/01/04 07:43:27;;;;;;;155.37;87.80;;;;;;;;;;4393449;32;20213;-52
2022/01/04 07:45:53;;;;;;;183.60;91.13;;;;;;;;;;4393275;32;20248;-53
2022/01/04 07:48:19;;;;;;;134.10;73.80;;;;;;;;;;4394967;32;20437;-53
2022/01/04 07:50:45;;;;;;;127.53;66.27;;;;;;;;;;4392291;32;20214;-52
2022/01/04 07:53:10;;;;;;;104.00;54.37;;;;;;;;;;4393494;32;20828;-52
2022/01/04 07:55:36;;;;;;;89.67;54.17;;;;;;;;;;4392979;32;20879;-52
2022/01/04 07:58:01;;;;;;;104.03;55.90;;;;;;;;;;4381194;32;20791;-52
2022/01/04 08:00:28;;;;;;;101.60;53.20;;;;;;;;;;4394535;32;20232;-53
2022/01/04 08:02:55;;;;;;;100.33;53.03;;;;;;;;;;4395184;32;20257;-52
2022/01/04 08:05:22;;;;;;;108.17;55.57;;;;;;;;;;4394196;32;20209;-53
2022/01/04 08:07:47;;;;;;;109.57;60.60;;;;;;;;;;4393304;32;20234;-52
2022/01/04 08:10:13;;;;;;;128.67;62.40;;;;;;;;;;4380040;32;20213;-53
2022/01/04 08:12:41;;;;;;;104.33;56.83;;;;;;;;;;4392887;32;20308;-55
2022/01/04 08:15:08;;;;;;;86.27;50.60;;;;;;;;;;4396809;32;20319;-53
2022/01/04 08:17:34;;;;;;;98.10;55.10;;;;;;;;;;4397251;32;20256;-52
2022/01/04 08:20:02;;;;;;;91.73;51.10;;;;;;;;;;4395869;32;20238;-52
2022/01/04 08:22:31;;;;;;;90.53;48.87;;;;;;;;;;4383030;32;20233;-52
2022/01/04 08:24:58;;;;;;;82.63;48.83;;;;;;;;;;4395862;32;20255;-52
2022/01/04 08:27:24;;;;;;;97.93;52.50;;;;;;;;;;4395746;32;20527;-51
2022/01/04 08:29:49;;;;;;;81.17;49.87;;;;;;;;;;4395281;32;20288;-52
2022/01/04 08:32:15;;;;;;;83.17;49.17;;;;;;;;;;4396004;32;20219;-51
2022/01/04 08:34:41;;;;;;;95.27;49.10;;;;;;;;;;4396717;32;20435;-51
2022/01/04 08:37:06;;;;;;;85.27;50.83;;;;;;;;;;4394856;32;20257;-50
2022/01/04 08:39:32;;;;;;;86.23;50.57;;;;;;;;;;4396055;32;20280;-51
2022/01/04 08:42:01;;;;;;;97.63;53.43;;;;;;;;;;4393472;32;20277;-51
2022/01/04 08:44:27;;;;;;;95.53;54.73;;;;;;;;;;4396188;32;20213;-51
2022/01/04 08:46:52;;;;;;;86.20;49.83;;;;;;;;;;4381294;32;20326;-50
2022/01/04 08:49:18;;;;;;;94.23;53.10;;;;;;;;;;4395655;32;20315;-53
2022/01/04 08:51:43;;;;;;;104.83;56.43;;;;;;;;;;4395132;32;20205;-50
2022/01/04 08:54:09;;;;;;;102.20;54.23;;;;;;;;;;4394647;32;20284;-51
2022/01/04 08:56:35;;;;;;;94.90;53.97;;;;;;;;;;4394276;32;20632;-51
2022/01/04 08:59:03;;;;;;;115.83;60.80;;;;;;;;;;4395788;32;20358;-52
2022/01/04 09:01:29;;;;;;;121.77;63.43;;;;;;;;;;4401496;32;20645;-52
2022/01/04 09:03:54;;;;;;;115.80;65.10;;;;;;;;;;4403795;32;20310;-54
2022/01/04 09:06:22;;;;;;;116.17;63.43;;;;;;;;;;4403844;32;20230;-52
2022/01/04 09:08:47;;;;;;;119.93;64.40;;;;;;;;;;4403312;32;20217;-51
2022/01/04 09:11:15;;;;;;;109.80;62.80;;;;;;;;;;4389944;32;20291;-51
2022/01/04 09:13:43;;;;;;;101.27;56.93;;;;;;;;;;4403234;32;20240;-53
2022/01/04 09:18:45;;;;;;;125.67;69.17;;;;;;;;;;4402183;32;20205;-51
2022/01/04 09:21:16;;;;;;;132.70;73.97;;;;;;;;;;4403315;32;20229;-53
2022/01/04 09:23:45;;;;;;;133.33;73.20;;;;;;;;;;4403090;32;20201;-54
2022/01/04 09:26:11;;;;;;;129.00;73.23;;;;;;;;;;4403268;32;20623;-53
2022/01/04 09:28:37;;;;;;;130.90;75.60;;;;;;;;;;4403172;32;20281;-53
2022/01/04 09:31:03;;;;;;;113.33;68.10;;;;;;;;;;4402568;32;20251;-53
2022/01/04 09:33:29;;;;;;;128.30;80.40;;;;;;;;;;4394080;32;20292;-53
2022/01/04 09:35:55;;;;;;;116.77;69.93;;;;;;;;;;4398326;32;20332;-52
2022/01/04 09:38:20;;;;;;;136.63;73.33;;;;;;;;;;4403241;32;20721;-53
2022/01/04 09:40:49;;;;;;;105.17;60.40;;;;;;;;;;4402317;32;20218;-52
2022/01/04 09:43:15;;;;;;;88.93;55.43;;;;;;;;;;4403291;32;20288;-53
2022/01/04 09:45:41;;;;;;;85.07;50.23;;;;;;;;;;4403426;32;20256;-53
2022/01/04 09:48:06;;;;;;;85.37;49.30;;;;;;;;;;4394834;32;20563;-52
2022/01/04 09:50:34;;;;;;;87.70;53.13;;;;;;;;;;4400681;32;20209;-52
2022/01/04 09:53:00;;;;;;;88.70;52.23;;;;;;;;;;4402054;32;20237;-53
2022/01/04 09:55:26;;;;;;;88.07;51.57;;;;;;;;;;4402781;32;20371;-52
2022/01/04 09:57:52;;;;;;;83.70;52.03;;;;;;;;;;4401739;32;20291;-52
2022/01/04 10:00:18;;;;;;;79.60;47.30;;;;;;;;;;4388856;32;20256;-52
2022/01/04 10:02:49;;;;;;;71.87;41.30;;;;;;;;;;4401182;32;20218;-51
2022/01/04 10:05:16;;;;;;;81.27;42.57;;;;;;;;;;4402831;32;20300;-52
2022/01/04 10:07:43;;;;;;;69.03;36.60;;;;;;;;;;4401616;32;20704;-52
2022/01/04 10:10:14;;;;;;;70.93;43.77;;;;;;;;;;4392277;32;20222;-52
2022/01/04 10:13:00;;;;;;;81.43;43.27;;;;;;;;;;4395920;32;20657;-52
2022/01/04 10:15:33;;;;;;;80.60;44.37;;;;;;;;;;4402350;32;20647;-52
2022/01/04 10:18:03;;;;;;;71.17;41.23;;;;;;;;;;4401473;32;20968;-52
2022/01/04 10:20:29;;;;;;;76.87;43.07;;;;;;;;;;4402633;32;20228;-52
2022/01/04 10:22:54;;;;;;;70.37;39.70;;;;;;;;;;4401733;32;20382;-54
2022/01/04 10:25:20;;;;;;;79.93;44.83;;;;;;;;;;4401918;32;20221;-51
2022/01/04 10:27:50;;;;;;;86.03;49.60;;;;;;;;;;4401216;32;20612;-51
2022/01/04 10:30:16;;;;;;;211.20;93.20;;;;;;;;;;4401427;32;20759;-52
2022/01/04 10:32:47;;;;;;;137.13;72.20;;;;;;;;;;4400052;32;20292;-51
2022/01/04 10:35:25;;;;;;;532.03;286.17;;;;;;;;;;4400952;32;20244;-51
2022/01/04 10:37:52;;;;;;;186.73;101.80;;;;;;;;;;4399162;32;20558;-51
2022/01/04 10:40:18;;;;;;;189.67;117.20;;;;;;;;;;4400451;32;20312;-51
2022/01/04 10:42:44;;;;;;;139.23;79.30;;;;;;;;;;4400221;32;20739;-51
2022/01/04 10:45:30;;;;;;;128.60;77.73;;;;;;;;;;4400365;32;20239;-52
2022/01/04 10:48:08;;;;;;;122.43;64.30;;;;;;;;;;4397835;32;20684;-52
2022/01/04 10:50:35;;;;;;;106.20;63.70;;;;;;;;;;4398934;32;20226;-52
2022/01/04 10:53:02;;;;;;;95.93;56.33;;;;;;;;;;4401176;32;20213;-53
2022/01/04 10:55:34;;;;;;;89.90;49.33;;;;;;;;;;4384270;32;20221;-52
2022/01/04 10:58:00;;;;;;;77.03;39.97;;;;;;;;;;4398596;32;20245;-53
2022/01/04 11:00:26;;;;;;;37.63;23.00;;;;;;;;;;4394540;32;20217;-52
2022/01/04 11:02:52;;;;;;;52.00;31.00;;;;;;;;;;4400340;32;20294;-53
2022/01/04 11:05:23;;;;;;;55.83;31.60;;;;;;;;;;4398056;32;20217;-54
2022/01/04 11:08:00;;;;;;;72.57;38.90;;;;;;;;;;4399107;32;20210;-52
2022/01/04 11:10:29;;;;;;;66.43;39.63;;;;;;;;;;4387021;32;20256;-52
2022/01/04 11:12:58;;;;;;;59.60;36.80;;;;;;;;;;4395106;32;20296;-52
2022/01/04 11:15:28;;;;;;;57.47;34.13;;;;;;;;;;4399793;32;20676;-52
2022/01/04 11:17:55;;;;;;;53.37;31.90;;;;;;;;;;4398142;32;20313;-52
2022/01/04 11:20:21;;;;;;;62.00;34.93;;;;;;;;;;4400053;32;20233;-52
2022/01/04 11:22:48;;;;;;;62.83;36.73;;;;;;;;;;4400753;32;20311;-52
2022/01/04 11:25:16;;;;;;;57.57;34.93;;;;;;;;;;4401816;32;20306;-53
2022/01/04 11:27:43;;;;;;;65.27;35.77;;;;;;;;;;4400800;32;20278;-53
2022/01/04 11:30:23;;;;;;;58.17;34.17;;;;;;;;;;4387220;32;20248;-52
2022/01/04 11:32:54;;;;;;;80.00;50.07;;;;;;;;;;4398622;32;20410;-52
2022/01/04 11:35:22;;;;;;;62.53;37.80;;;;;;;;;;4400808;32;20210;-52
2022/01/04 11:37:55;;;;;;;68.57;40.20;;;;;;;;;;4400518;32;20237;-53
2022/01/04 11:40:25;;;;;;;66.13;41.13;;;;;;;;;;4399982;32;20201;-53
2022/01/04 11:42:52;;;;;;;79.70;42.53;;;;;;;;;;4400519;32;20228;-52
2022/01/04 11:45:36;;;;;;;71.23;41.73;;;;;;;;;;4399984;32;20241;-53
2022/01/04 11:48:02;;;;;;;76.53;46.43;;;;;;;;;;4400261;32;20305;-51
2022/01/04 11:50:35;;;;;;;75.07;43.60;;;;;;;;;;4403125;32;20386;-54
2022/01/04 11:53:08;;;;;;;75.73;46.83;;;;;;;;;;4397353;32;20278;-52
2022/01/04 11:55:37;;;;;;;82.43;46.27;;;;;;;;;;4403961;32;20649;-53
2022/01/04 11:58:14;;;;;;;98.87;52.70;;;;;;;;;;4388351;32;20296;-53
2022/01/04 12:00:43;;;;;;;70.33;40.10;;;;;;;;;;4403295;32;20251;-53
2022/01/04 12:03:18;;;;;;;42.00;26.87;;;;;;;;;;4401394;32;20229;-53
2022/01/04 12:05:58;;;;;;;47.77;28.60;;;;;;;;;;4406527;32;20240;-53
2022/01/04 12:08:25;;;;;;;76.77;44.30;;;;;;;;;;4402711;32;20225;-53
2022/01/04 12:10:54;;;;;;;71.60;44.40;;;;;;;;;;4403762;32;20356;-53
2022/01/04 12:13:21;;;;;;;66.87;42.70;;;;;;;;;;4401933;32;20213;-53
2022/01/04 12:15:47;;;;;;;76.13;44.77;;;;;;;;;;4399881;32;20237;-53
2022/01/04 12:18:31;;;;;;;72.80;41.50;;;;;;;;;;4398636;32;20378;-53
2022/01/04 12:20:59;;;;;;;77.00;45.37;;;;;;;;;;4384143;32;20304;-54
2022/01/04 12:23:29;;;;;;;87.33;51.33;;;;;;;;;;4390504;32;20367;-52
2022/01/04 12:28:30;;;;;;;95.13;48.13;;;;;;;;;;4395967;32;20759;-52
2022/01/04 12:31:16;;;;;;;83.93;47.20;;;;;;;;;;4382963;32;20245;-51
2022/01/04 12:33:48;;;;;;;81.70;48.50;;;;;;;;;;4396153;32;20307;-53
2022/01/04 12:36:25;;;;;;;73.17;44.03;;;;;;;;;;4397519;32;20272;-52
2022/01/04 12:38:52;;;;;;;72.67;44.10;;;;;;;;;;4391266;32;20729;-52
2022/01/04 12:41:18;;;;;;;76.73;43.23;;;;;;;;;;4401724;32;20621;-54
2022/01/04 12:43:47;;;;;;;65.63;36.00;;;;;;;;;;4402791;32;20644;-53
2022/01/04 12:46:14;;;;;;;40.83;25.17;;;;;;;;;;4398498;32;20273;-52
2022/01/04 12:48:51;;;;;;;42.67;26.07;;;;;;;;;;4403442;32;20664;-51
2022/01/04 12:51:27;;;;;;;57.53;33.73;;;;;;;;;;4392026;32;20245;-52
2022/01/04 12:53:54;;;;;;;35.87;19.80;;;;;;;;;;4400137;32;20381;-53
2022/01/04 12:56:20;;;;;;;43.63;27.37;;;;;;;;;;4401681;32;20316;-52
2022/01/04 12:58:45;;;;;;;44.67;24.50;;;;;;;;;;4403512;32;20717;-52
2022/01/04 13:01:12;;;;;;;34.03;21.70;;;;;;;;;;4402614;32;20241;-53
2022/01/04 13:03:38;;;;;;;48.73;28.37;;;;;;;;;;4402617;32;20255;-53
2022/01/04 13:06:04;;;;;;;40.10;24.90;;;;;;;;;;4402740;32;20218;-52
2022/01/04 13:08:35;;;;;;;45.87;26.73;;;;;;;;;;4402928;32;20296;-52
2022/01/04 13:11:08;;;;;;;40.47;25.93;;;;;;;;;;4402984;32;20229;-53
2022/01/04 13:13:34;;;;;;;47.47;30.07;;;;;;;;;;4401404;32;20325;-53
2022/01/04 13:16:18;;;;;;;55.87;34.20;;;;;;;;;;4402964;32;20247;-52
2022/01/04 13:18:43;;;;;;;68.80;35.57;;;;;;;;;;4402454;32;20228;-53
2022/01/04 13:21:09;;;;;;;71.27;39.93;;;;;;;;;;4402701;32;20284;-53
2022/01/04 13:23:39;;;;;;;60.00;37.10;;;;;;;;;;4403004;32;20323;-54
2022/01/04 13:26:04;;;;;;;61.27;37.63;;;;;;;;;;4403377;32;20395;-53
2022/01/04 13:28:30;;;;;;;68.67;39.00;;;;;;;;;;4402095;32;20296;-53
2022/01/04 13:30:55;;;;;;;67.13;40.53;;;;;;;;;;4401112;32;20406;-52
2022/01/04 13:33:23;;;;;;;76.57;41.63;;;;;;;;;;4400502;32;20759;-53
2022/01/04 13:35:49;;;;;;;65.87;40.30;;;;;;;;;;4400562;32;20243;-52
2022/01/04 13:38:21;;;;;;;61.20;37.60;;;;;;;;;;4401426;32;20385;-53
2022/01/04 13:40:51;;;;;;;72.07;39.13;;;;;;;;;;4398864;32;20237;-54
2022/01/04 13:43:19;;;;;;;59.37;38.87;;;;;;;;;;4408873;32;20687;-53
2022/01/04 13:45:55;;;;;;;62.67;39.57;;;;;;;;;;4391145;32;20241;-53
2022/01/04 13:48:34;;;;;;;65.37;40.57;;;;;;;;;;4403255;32;20209;-53
2022/01/04 13:51:10;;;;;;;64.63;37.77;;;;;;;;;;4402704;32;20675;-54
2022/01/04 13:53:40;;;;;;;71.50;40.37;;;;;;;;;;4400346;32;20348;-53
2022/01/04 13:56:10;;;;;;;71.03;38.23;;;;;;;;;;4402712;32;20217;-53
2022/01/04 13:58:45;;;;;;;66.10;36.93;;;;;;;;;;4390145;32;20264;-54
2022/01/04 14:01:10;;;;;;;66.97;39.37;;;;;;;;;;4402742;32;20229;-53
2022/01/04 14:03:36;;;;;;;59.93;35.93;;;;;;;;;;4402800;32;20209;-53
2022/01/04 14:06:02;;;;;;;74.50;40.90;;;;;;;;;;4388378;32;20638;-53
2022/01/04 14:08:48;;;;;;;83.90;45.53;;;;;;;;;;4388965;32;20571;-54
2022/01/04 14:11:28;;;;;;;78.63;46.33;;;;;;;;;;4402173;32;20217;-53
2022/01/04 14:13:54;;;;;;;78.80;44.03;;;;;;;;;;4401514;32;20235;-54
2022/01/04 14:16:22;;;;;;;83.33;49.83;;;;;;;;;;4400781;32;20259;-54
2022/01/04 14:19:14;;;;;;;83.93;49.43;;;;;;;;;;4400392;32;20558;-54